sensor_id;sensor_type;location;lat;lon;timestamp;P1;durP1;ratioP1;P2;durP2;ratioP2
22786;SDS011;63134;52.020;4.714;2023-05-07T00:01:36;63.80;;;40.53;;
22786;SDS011;63134;52.020;4.714;2023-05-07T00:04:22;67.97;;;40.58;;
22786;SDS011;63134;52.020;4.714;2023-05-07T00:07:08;67.60;;;41.17;;
22786;SDS011;63134;52.020;4.714;2023-05-07T00:09:54;65.70;;;40.92;;
22786;SDS011;63134;52.020;4.714;2023-05-07T00:12:39;63.28;;;39.88;;
22786;SDS011;63134;52.020;4.714;2023-05-07T00:15:26;58.72;;;37.67;;
22786;SDS011;63134;52.020;4.714;2023-05-07T00:18:15;65.63;;;40.28;;
22786;SDS011;63134;52.020;4.714;2023-05-07T00:21:01;61.90;;;38.45;;
22786;SDS011;63134;52.020;4.714;2023-05-07T00:23:46;56.20;;;38.53;;
22786;SDS011;63134;52.020;4.714;2023-05-07T00:26:32;62.45;;;38.47;;
22786;SDS011;63134;52.020;4.714;2023-05-07T00:29:18;55.15;;;37.75;;
22786;SDS011;63134;52.020;4.714;2023-05-07T00:32:04;55.88;;;38.90;;
22786;SDS011;63134;52.020;4.714;2023-05-07T00:34:50;63.67;;;40.75;;
22786;SDS011;63134;52.020;4.714;2023-05-07T00:37:36;55.90;;;38.35;;
22786;SDS011;63134;52.020;4.714;2023-05-07T00:40:21;62.97;;;40.50;;
22786;SDS011;63134;52.020;4.714;2023-05-07T00:43:07;57.47;;;39.30;;
22786;SDS011;63134;52.020;4.714;2023-05-07T00:45:53;59.38;;;41.53;;
22786;SDS011;63134;52.020;4.714;2023-05-07T00:48:39;61.22;;;42.13;;
22786;SDS011;63134;52.020;4.714;2023-05-07T00:51:25;65.55;;;44.17;;
22786;SDS011;63134;52.020;4.714;2023-05-07T00:54:12;61.13;;;42.78;;
22786;SDS011;63134;52.020;4.714;2023-05-07T00:56:58;61.55;;;41.92;;
22786;SDS011;63134;52.020;4.714;2023-05-07T00:59:43;62.75;;;42.28;;
22786;SDS011;63134;52.020;4.714;2023-05-07T01:02:29;58.42;;;42.95;;
22786;SDS011;63134;52.020;4.714;2023-05-07T01:05:15;57.55;;;42.42;;
22786;SDS011;63134;52.020;4.714;2023-05-07T01:08:04;58.08;;;42.63;;
22786;SDS011;63134;52.020;4.714;2023-05-07T01:10:50;60.63;;;42.90;;
22786;SDS011;63134;52.020;4.714;2023-05-07T01:13:36;62.85;;;43.38;;
22786;SDS011;63134;52.020;4.714;2023-05-07T01:16:23;62.45;;;44.22;;
22786;SDS011;63134;52.020;4.714;2023-05-07T01:19:09;59.63;;;43.38;;
22786;SDS011;63134;52.020;4.714;2023-05-07T01:21:58;58.28;;;43.13;;
22786;SDS011;63134;52.020;4.714;2023-05-07T01:24:51;59.47;;;44.42;;
22786;SDS011;63134;52.020;4.714;2023-05-07T01:27:37;66.57;;;44.90;;
22786;SDS011;63134;52.020;4.714;2023-05-07T01:30:22;63.30;;;44.90;;
22786;SDS011;63134;52.020;4.714;2023-05-07T01:33:09;65.85;;;46.42;;
22786;SDS011;63134;52.020;4.714;2023-05-07T01:35:56;63.05;;;46.28;;
22786;SDS011;63134;52.020;4.714;2023-05-07T01:38:45;70.90;;;46.45;;
22786;SDS011;63134;52.020;4.714;2023-05-07T01:41:31;66.10;;;47.85;;
22786;SDS011;63134;52.020;4.714;2023-05-07T01:44:22;66.18;;;47.22;;
22786;SDS011;63134;52.020;4.714;2023-05-07T01:47:09;70.65;;;47.83;;
22786;SDS011;63134;52.020;4.714;2023-05-07T01:49:55;71.50;;;48.42;;
22786;SDS011;63134;52.020;4.714;2023-05-07T01:52:41;61.22;;;46.13;;
22786;SDS011;63134;52.020;4.714;2023-05-07T01:55:26;65.07;;;45.85;;
22786;SDS011;63134;52.020;4.714;2023-05-07T01:58:12;59.63;;;44.47;;
22786;SDS011;63134;52.020;4.714;2023-05-07T02:00:57;60.60;;;43.75;;
22786;SDS011;63134;52.020;4.714;2023-05-07T02:03:44;62.28;;;44.03;;
22786;SDS011;63134;52.020;4.714;2023-05-07T02:06:37;57.63;;;42.85;;
22786;SDS011;63134;52.020;4.714;2023-05-07T02:09:25;57.35;;;43.42;;
22786;SDS011;63134;52.020;4.714;2023-05-07T02:12:10;60.17;;;42.15;;
22786;SDS011;63134;52.020;4.714;2023-05-07T02:14:56;52.03;;;41.60;;
22786;SDS011;63134;52.020;4.714;2023-05-07T02:20:47;46.58;;;38.78;;
22786;SDS011;63134;52.020;4.714;2023-05-07T02:23:32;46.28;;;38.03;;
22786;SDS011;63134;52.020;4.714;2023-05-07T02:26:19;46.83;;;36.88;;
22786;SDS011;63134;52.020;4.714;2023-05-07T02:29:06;43.38;;;35.15;;
22786;SDS011;63134;52.020;4.714;2023-05-07T02:31:52;40.67;;;33.63;;
22786;SDS011;63134;52.020;4.714;2023-05-07T02:34:37;42.33;;;34.45;;
22786;SDS011;63134;52.020;4.714;2023-05-07T02:37:23;42.38;;;33.33;;
22786;SDS011;63134;52.020;4.714;2023-05-07T02:40:09;38.88;;;32.70;;
22786;SDS011;63134;52.020;4.714;2023-05-07T02:42:55;42.33;;;32.08;;
22786;SDS011;63134;52.020;4.714;2023-05-07T02:45:40;37.03;;;31.33;;
22786;SDS011;63134;52.020;4.714;2023-05-07T02:48:26;37.95;;;30.75;;
22786;SDS011;63134;52.020;4.714;2023-05-07T02:51:12;39.53;;;30.73;;
22786;SDS011;63134;52.020;4.714;2023-05-07T02:54:08;39.67;;;31.55;;
22786;SDS011;63134;52.020;4.714;2023-05-07T02:56:53;36.13;;;28.95;;
22786;SDS011;63134;52.020;4.714;2023-05-07T02:59:39;34.35;;;29.58;;
22786;SDS011;63134;52.020;4.714;2023-05-07T03:02:24;36.67;;;29.65;;
22786;SDS011;63134;52.020;4.714;2023-05-07T03:05:10;33.10;;;28.95;;
22786;SDS011;63134;52.020;4.714;2023-05-07T03:07:56;33.13;;;29.15;;
22786;SDS011;63134;52.020;4.714;2023-05-07T03:10:42;33.55;;;27.65;;
22786;SDS011;63134;52.020;4.714;2023-05-07T03:13:27;33.42;;;29.05;;
22786;SDS011;63134;52.020;4.714;2023-05-07T03:16:13;38.17;;;29.88;;
22786;SDS011;63134;52.020;4.714;2023-05-07T03:18:58;34.47;;;29.38;;
22786;SDS011;63134;52.020;4.714;2023-05-07T03:21:44;32.35;;;28.92;;
22786;SDS011;63134;52.020;4.714;2023-05-07T03:24:30;31.60;;;28.35;;
22786;SDS011;63134;52.020;4.714;2023-05-07T03:27:16;35.88;;;28.27;;
22786;SDS011;63134;52.020;4.714;2023-05-07T03:30:02;35.08;;;28.70;;
22786;SDS011;63134;52.020;4.714;2023-05-07T03:32:49;31.17;;;27.85;;
22786;SDS011;63134;52.020;4.714;2023-05-07T03:35:35;33.88;;;27.30;;
22786;SDS011;63134;52.020;4.714;2023-05-07T03:38:20;30.63;;;26.50;;
22786;SDS011;63134;52.020;4.714;2023-05-07T03:41:07;30.42;;;27.20;;
22786;SDS011;63134;52.020;4.714;2023-05-07T03:43:56;29.20;;;25.98;;
22786;SDS011;63134;52.020;4.714;2023-05-07T03:46:42;32.08;;;26.50;;
22786;SDS011;63134;52.020;4.714;2023-05-07T03:49:30;35.30;;;28.83;;
22786;SDS011;63134;52.020;4.714;2023-05-07T03:52:16;31.38;;;26.98;;
22786;SDS011;63134;52.020;4.714;2023-05-07T03:55:07;32.03;;;28.65;;
22786;SDS011;63134;52.020;4.714;2023-05-07T03:57:55;31.92;;;28.27;;
22786;SDS011;63134;52.020;4.714;2023-05-07T04:00:43;30.55;;;27.27;;
22786;SDS011;63134;52.020;4.714;2023-05-07T04:03:39;30.73;;;27.58;;
22786;SDS011;63134;52.020;4.714;2023-05-07T04:06:24;31.90;;;27.65;;
22786;SDS011;63134;52.020;4.714;2023-05-07T04:09:10;32.13;;;27.73;;
22786;SDS011;63134;52.020;4.714;2023-05-07T04:11:56;30.63;;;27.45;;
22786;SDS011;63134;52.020;4.714;2023-05-07T04:14:42;32.72;;;26.83;;
22786;SDS011;63134;52.020;4.714;2023-05-07T04:17:29;29.85;;;26.73;;
22786;SDS011;63134;52.020;4.714;2023-05-07T04:20:16;32.58;;;27.05;;
22786;SDS011;63134;52.020;4.714;2023-05-07T04:23:07;30.27;;;25.92;;
22786;SDS011;63134;52.020;4.714;2023-05-07T04:25:53;33.25;;;28.20;;
22786;SDS011;63134;52.020;4.714;2023-05-07T04:28:56;30.77;;;26.70;;
22786;SDS011;63134;52.020;4.714;2023-05-07T04:31:50;33.13;;;26.75;;
22786;SDS011;63134;52.020;4.714;2023-05-07T04:34:36;29.40;;;26.25;;
22786;SDS011;63134;52.020;4.714;2023-05-07T04:37:21;30.52;;;26.08;;
22786;SDS011;63134;52.020;4.714;2023-05-07T04:40:07;29.55;;;25.98;;
22786;SDS011;63134;52.020;4.714;2023-05-07T04:42:53;31.02;;;25.08;;
22786;SDS011;63134;52.020;4.714;2023-05-07T04:45:39;29.90;;;25.38;;
22786;SDS011;63134;52.020;4.714;2023-05-07T04:48:26;27.60;;;24.70;;
22786;SDS011;63134;52.020;4.714;2023-05-07T04:51:14;27.15;;;24.20;;
22786;SDS011;63134;52.020;4.714;2023-05-07T04:54:00;26.80;;;23.95;;
22786;SDS011;63134;52.020;4.714;2023-05-07T04:56:48;29.15;;;23.17;;
22786;SDS011;63134;52.020;4.714;2023-05-07T04:59:33;27.52;;;23.10;;
22786;SDS011;63134;52.020;4.714;2023-05-07T05:02:19;24.73;;;21.98;;
22786;SDS011;63134;52.020;4.714;2023-05-07T05:05:05;23.40;;;20.92;;
22786;SDS011;63134;52.020;4.714;2023-05-07T05:07:51;26.27;;;21.35;;
22786;SDS011;63134;52.020;4.714;2023-05-07T05:10:37;24.00;;;20.75;;
22786;SDS011;63134;52.020;4.714;2023-05-07T05:13:30;26.25;;;21.73;;
22786;SDS011;63134;52.020;4.714;2023-05-07T05:16:17;23.08;;;20.65;;
22786;SDS011;63134;52.020;4.714;2023-05-07T05:19:03;24.55;;;21.02;;
22786;SDS011;63134;52.020;4.714;2023-05-07T05:21:51;23.50;;;21.10;;
22786;SDS011;63134;52.020;4.714;2023-05-07T05:24:36;22.58;;;20.27;;
22786;SDS011;63134;52.020;4.714;2023-05-07T05:27:22;27.02;;;20.38;;
22786;SDS011;63134;52.020;4.714;2023-05-07T05:30:08;24.95;;;21.27;;
22786;SDS011;63134;52.020;4.714;2023-05-07T05:32:55;25.33;;;20.60;;
22786;SDS011;63134;52.020;4.714;2023-05-07T05:35:41;27.50;;;21.80;;
22786;SDS011;63134;52.020;4.714;2023-05-07T05:38:29;27.95;;;22.20;;
22786;SDS011;63134;52.020;4.714;2023-05-07T05:41:15;24.30;;;20.80;;
22786;SDS011;63134;52.020;4.714;2023-05-07T05:44:00;25.88;;;22.77;;
22786;SDS011;63134;52.020;4.714;2023-05-07T05:46:46;27.48;;;23.17;;
22786;SDS011;63134;52.020;4.714;2023-05-07T05:49:32;27.98;;;23.35;;
22786;SDS011;63134;52.020;4.714;2023-05-07T05:52:18;28.58;;;23.05;;
22786;SDS011;63134;52.020;4.714;2023-05-07T05:55:04;28.45;;;23.63;;
22786;SDS011;63134;52.020;4.714;2023-05-07T05:57:52;28.30;;;25.17;;
22786;SDS011;63134;52.020;4.714;2023-05-07T06:00:38;33.13;;;25.67;;
22786;SDS011;63134;52.020;4.714;2023-05-07T06:03:24;30.10;;;25.48;;
22786;SDS011;63134;52.020;4.714;2023-05-07T06:06:11;29.88;;;24.63;;
22786;SDS011;63134;52.020;4.714;2023-05-07T06:08:57;30.83;;;24.10;;
22786;SDS011;63134;52.020;4.714;2023-05-07T06:11:49;27.48;;;23.80;;
22786;SDS011;63134;52.020;4.714;2023-05-07T06:14:35;27.83;;;24.98;;
22786;SDS011;63134;52.020;4.714;2023-05-07T06:17:21;26.80;;;23.83;;
22786;SDS011;63134;52.020;4.714;2023-05-07T06:20:07;29.20;;;24.75;;
22786;SDS011;63134;52.020;4.714;2023-05-07T06:22:53;27.40;;;24.45;;
22786;SDS011;63134;52.020;4.714;2023-05-07T06:25:39;29.10;;;25.17;;
22786;SDS011;63134;52.020;4.714;2023-05-07T06:28:26;30.55;;;25.23;;
22786;SDS011;63134;52.020;4.714;2023-05-07T06:31:19;29.35;;;24.88;;
22786;SDS011;63134;52.020;4.714;2023-05-07T06:34:15;28.65;;;25.17;;
22786;SDS011;63134;52.020;4.714;2023-05-07T06:37:00;32.55;;;24.70;;
22786;SDS011;63134;52.020;4.714;2023-05-07T06:40:04;27.20;;;24.35;;
22786;SDS011;63134;52.020;4.714;2023-05-07T06:42:53;35.17;;;26.40;;
22786;SDS011;63134;52.020;4.714;2023-05-07T06:46:01;29.90;;;26.35;;
22786;SDS011;63134;52.020;4.714;2023-05-07T06:48:47;31.83;;;26.98;;
22786;SDS011;63134;52.020;4.714;2023-05-07T06:51:33;29.45;;;26.17;;
22786;SDS011;63134;52.020;4.714;2023-05-07T06:54:21;31.58;;;26.80;;
22786;SDS011;63134;52.020;4.714;2023-05-07T06:57:08;31.90;;;24.98;;
22786;SDS011;63134;52.020;4.714;2023-05-07T06:59:53;29.27;;;26.10;;
22786;SDS011;63134;52.020;4.714;2023-05-07T07:02:39;35.72;;;26.52;;
22786;SDS011;63134;52.020;4.714;2023-05-07T07:05:27;32.35;;;26.25;;
22786;SDS011;63134;52.020;4.714;2023-05-07T07:08:13;31.83;;;24.67;;
22786;SDS011;63134;52.020;4.714;2023-05-07T07:11:03;29.50;;;25.00;;
22786;SDS011;63134;52.020;4.714;2023-05-07T07:13:49;28.77;;;25.42;;
22786;SDS011;63134;52.020;4.714;2023-05-07T07:16:35;28.75;;;24.10;;
22786;SDS011;63134;52.020;4.714;2023-05-07T07:19:20;27.15;;;24.10;;
22786;SDS011;63134;52.020;4.714;2023-05-07T07:22:09;28.08;;;23.65;;
22786;SDS011;63134;52.020;4.714;2023-05-07T07:24:55;28.67;;;23.98;;
22786;SDS011;63134;52.020;4.714;2023-05-07T07:27:44;26.83;;;23.98;;
22786;SDS011;63134;52.020;4.714;2023-05-07T07:30:32;28.90;;;23.20;;
22786;SDS011;63134;52.020;4.714;2023-05-07T07:33:17;28.00;;;21.95;;
22786;SDS011;63134;52.020;4.714;2023-05-07T07:36:04;27.30;;;23.55;;
22786;SDS011;63134;52.020;4.714;2023-05-07T07:38:51;27.92;;;23.40;;
22786;SDS011;63134;52.020;4.714;2023-05-07T07:41:36;27.35;;;23.55;;
22786;SDS011;63134;52.020;4.714;2023-05-07T07:44:22;24.60;;;22.08;;
22786;SDS011;63134;52.020;4.714;2023-05-07T07:47:13;25.48;;;22.30;;
22786;SDS011;63134;52.020;4.714;2023-05-07T07:50:00;27.45;;;22.95;;
22786;SDS011;63134;52.020;4.714;2023-05-07T07:52:45;26.42;;;23.40;;
22786;SDS011;63134;52.020;4.714;2023-05-07T07:55:37;24.77;;;21.85;;
22786;SDS011;63134;52.020;4.714;2023-05-07T07:58:24;22.70;;;20.42;;
22786;SDS011;63134;52.020;4.714;2023-05-07T08:01:10;24.27;;;21.80;;
22786;SDS011;63134;52.020;4.714;2023-05-07T08:03:58;28.27;;;22.77;;
22786;SDS011;63134;52.020;4.714;2023-05-07T08:06:45;24.30;;;21.73;;
22786;SDS011;63134;52.020;4.714;2023-05-07T08:09:32;23.52;;;20.17;;
22786;SDS011;63134;52.020;4.714;2023-05-07T08:12:19;22.88;;;19.83;;
22786;SDS011;63134;52.020;4.714;2023-05-07T08:15:06;25.00;;;19.95;;
22786;SDS011;63134;52.020;4.714;2023-05-07T08:17:52;20.88;;;18.70;;
22786;SDS011;63134;52.020;4.714;2023-05-07T08:20:37;20.67;;;18.10;;
22786;SDS011;63134;52.020;4.714;2023-05-07T08:23:27;18.52;;;15.98;;
22786;SDS011;63134;52.020;4.714;2023-05-07T08:26:13;17.42;;;14.77;;
22786;SDS011;63134;52.020;4.714;2023-05-07T08:29:00;17.92;;;13.38;;
22786;SDS011;63134;52.020;4.714;2023-05-07T08:31:45;18.23;;;13.48;;
22786;SDS011;63134;52.020;4.714;2023-05-07T08:34:31;17.70;;;13.35;;
22786;SDS011;63134;52.020;4.714;2023-05-07T08:37:20;14.95;;;12.70;;
22786;SDS011;63134;52.020;4.714;2023-05-07T08:40:05;15.45;;;13.05;;
22786;SDS011;63134;52.020;4.714;2023-05-07T08:42:56;14.63;;;10.77;;
22786;SDS011;63134;52.020;4.714;2023-05-07T08:45:43;14.55;;;10.20;;
22786;SDS011;63134;52.020;4.714;2023-05-07T08:48:32;14.38;;;9.90;;
22786;SDS011;63134;52.020;4.714;2023-05-07T08:51:29;14.60;;;10.82;;
22786;SDS011;63134;52.020;4.714;2023-05-07T08:54:18;15.10;;;11.52;;
22786;SDS011;63134;52.020;4.714;2023-05-07T08:57:05;14.18;;;12.18;;
22786;SDS011;63134;52.020;4.714;2023-05-07T08:59:52;11.80;;;10.65;;
22786;SDS011;63134;52.020;4.714;2023-05-07T09:02:38;12.00;;;9.85;;
22786;SDS011;63134;52.020;4.714;2023-05-07T09:05:25;13.52;;;10.43;;
22786;SDS011;63134;52.020;4.714;2023-05-07T09:08:14;15.30;;;10.00;;
22786;SDS011;63134;52.020;4.714;2023-05-07T09:11:02;13.55;;;9.68;;
22786;SDS011;63134;52.020;4.714;2023-05-07T09:13:49;13.48;;;9.05;;
22786;SDS011;63134;52.020;4.714;2023-05-07T09:19:29;13.13;;;9.23;;
22786;SDS011;63134;52.020;4.714;2023-05-07T09:22:18;14.70;;;9.93;;
22786;SDS011;63134;52.020;4.714;2023-05-07T09:25:14;13.73;;;9.32;;
22786;SDS011;63134;52.020;4.714;2023-05-07T09:28:01;13.80;;;9.52;;
22786;SDS011;63134;52.020;4.714;2023-05-07T09:30:48;11.05;;;7.80;;
22786;SDS011;63134;52.020;4.714;2023-05-07T09:33:34;14.32;;;8.13;;
22786;SDS011;63134;52.020;4.714;2023-05-07T09:36:21;11.40;;;6.03;;
22786;SDS011;63134;52.020;4.714;2023-05-07T09:39:07;10.75;;;7.25;;
22786;SDS011;63134;52.020;4.714;2023-05-07T09:41:53;11.60;;;7.45;;
22786;SDS011;63134;52.020;4.714;2023-05-07T09:44:47;10.52;;;5.82;;
22786;SDS011;63134;52.020;4.714;2023-05-07T09:47:36;10.50;;;5.95;;
22786;SDS011;63134;52.020;4.714;2023-05-07T09:50:27;12.15;;;5.18;;
22786;SDS011;63134;52.020;4.714;2023-05-07T09:53:15;8.15;;;5.30;;
22786;SDS011;63134;52.020;4.714;2023-05-07T09:56:02;11.20;;;5.70;;
22786;SDS011;63134;52.020;4.714;2023-05-07T09:58:51;7.63;;;5.95;;
22786;SDS011;63134;52.020;4.714;2023-05-07T10:01:40;9.45;;;6.03;;
22786;SDS011;63134;52.020;4.714;2023-05-07T10:04:27;8.85;;;6.28;;
22786;SDS011;63134;52.020;4.714;2023-05-07T10:07:14;9.15;;;5.60;;
22786;SDS011;63134;52.020;4.714;2023-05-07T10:10:02;10.48;;;5.68;;
22786;SDS011;63134;52.020;4.714;2023-05-07T10:12:53;9.20;;;6.32;;
22786;SDS011;63134;52.020;4.714;2023-05-07T10:15:46;9.80;;;4.70;;
22786;SDS011;63134;52.020;4.714;2023-05-07T10:18:33;10.30;;;5.78;;
22786;SDS011;63134;52.020;4.714;2023-05-07T10:21:26;10.38;;;4.95;;
22786;SDS011;63134;52.020;4.714;2023-05-07T10:24:28;8.18;;;4.82;;
22786;SDS011;63134;52.020;4.714;2023-05-07T10:27:18;9.85;;;4.90;;
22786;SDS011;63134;52.020;4.714;2023-05-07T10:33:06;14.68;;;4.93;;
22786;SDS011;63134;52.020;4.714;2023-05-07T10:35:59;10.68;;;4.32;;
22786;SDS011;63134;52.020;4.714;2023-05-07T10:38:48;10.00;;;4.55;;
22786;SDS011;63134;52.020;4.714;2023-05-07T10:41:36;14.77;;;4.95;;
22786;SDS011;63134;52.020;4.714;2023-05-07T10:44:25;8.88;;;4.70;;
22786;SDS011;63134;52.020;4.714;2023-05-07T10:47:15;10.55;;;5.10;;
22786;SDS011;63134;52.020;4.714;2023-05-07T11:02:20;9.32;;;4.85;;
22786;SDS011;63134;52.020;4.714;2023-05-07T11:05:22;7.10;;;4.07;;
22786;SDS011;63134;52.020;4.714;2023-05-07T11:08:15;11.15;;;4.90;;
22786;SDS011;63134;52.020;4.714;2023-05-07T11:11:10;11.57;;;5.60;;
22786;SDS011;63134;52.020;4.714;2023-05-07T11:13:55;9.35;;;5.35;;
22786;SDS011;63134;52.020;4.714;2023-05-07T11:16:48;9.93;;;5.65;;
22786;SDS011;63134;52.020;4.714;2023-05-07T11:19:53;7.03;;;4.47;;
22786;SDS011;63134;52.020;4.714;2023-05-07T11:26:50;8.80;;;3.60;;
22786;SDS011;63134;52.020;4.714;2023-05-07T11:29:38;6.88;;;3.38;;
22786;SDS011;63134;52.020;4.714;2023-05-07T11:32:31;9.63;;;4.10;;
22786;SDS011;63134;52.020;4.714;2023-05-07T11:35:18;9.38;;;4.60;;
22786;SDS011;63134;52.020;4.714;2023-05-07T11:38:09;10.00;;;4.07;;
22786;SDS011;63134;52.020;4.714;2023-05-07T11:40:57;12.88;;;5.13;;
22786;SDS011;63134;52.020;4.714;2023-05-07T11:43:57;8.57;;;4.93;;
22786;SDS011;63134;52.020;4.714;2023-05-07T11:46:44;8.73;;;4.90;;
22786;SDS011;63134;52.020;4.714;2023-05-07T11:49:29;8.02;;;4.93;;
22786;SDS011;63134;52.020;4.714;2023-05-07T11:52:15;11.05;;;5.05;;
22786;SDS011;63134;52.020;4.714;2023-05-07T11:55:02;12.13;;;4.97;;
22786;SDS011;63134;52.020;4.714;2023-05-07T11:57:50;7.68;;;4.57;;
22786;SDS011;63134;52.020;4.714;2023-05-07T12:00:36;9.82;;;6.45;;
22786;SDS011;63134;52.020;4.714;2023-05-07T12:03:21;10.77;;;5.90;;
22786;SDS011;63134;52.020;4.714;2023-05-07T12:06:07;10.20;;;5.30;;
22786;SDS011;63134;52.020;4.714;2023-05-07T12:08:52;8.20;;;5.30;;
22786;SDS011;63134;52.020;4.714;2023-05-07T12:11:38;9.30;;;5.00;;
22786;SDS011;63134;52.020;4.714;2023-05-07T12:14:27;10.27;;;5.18;;
22786;SDS011;63134;52.020;4.714;2023-05-07T12:17:14;12.25;;;5.90;;
22786;SDS011;63134;52.020;4.714;2023-05-07T12:19:59;10.10;;;5.93;;
22786;SDS011;63134;52.020;4.714;2023-05-07T12:22:45;7.82;;;6.18;;
22786;SDS011;63134;52.020;4.714;2023-05-07T12:25:43;11.32;;;6.05;;
22786;SDS011;63134;52.020;4.714;2023-05-07T12:28:37;10.02;;;6.90;;
22786;SDS011;63134;52.020;4.714;2023-05-07T12:31:27;10.52;;;6.05;;
22786;SDS011;63134;52.020;4.714;2023-05-07T12:34:13;10.75;;;5.88;;
22786;SDS011;63134;52.020;4.714;2023-05-07T12:37:01;9.65;;;6.40;;
22786;SDS011;63134;52.020;4.714;2023-05-07T12:39:48;10.02;;;7.57;;
22786;SDS011;63134;52.020;4.714;2023-05-07T12:42:38;12.57;;;7.30;;
22786;SDS011;63134;52.020;4.714;2023-05-07T12:45:24;10.50;;;8.15;;
22786;SDS011;63134;52.020;4.714;2023-05-07T12:48:14;13.15;;;8.30;;
22786;SDS011;63134;52.020;4.714;2023-05-07T12:51:00;11.55;;;7.97;;
22786;SDS011;63134;52.020;4.714;2023-05-07T12:53:47;14.63;;;7.20;;
22786;SDS011;63134;52.020;4.714;2023-05-07T12:56:35;14.85;;;7.47;;
22786;SDS011;63134;52.020;4.714;2023-05-07T12:59:30;11.50;;;8.23;;
22786;SDS011;63134;52.020;4.714;2023-05-07T13:02:19;11.60;;;7.75;;
22786;SDS011;63134;52.020;4.714;2023-05-07T13:05:08;12.48;;;7.47;;
22786;SDS011;63134;52.020;4.714;2023-05-07T13:07:57;13.75;;;8.32;;
22786;SDS011;63134;52.020;4.714;2023-05-07T13:10:43;13.30;;;8.18;;
22786;SDS011;63134;52.020;4.714;2023-05-07T13:13:28;14.90;;;8.25;;
22786;SDS011;63134;52.020;4.714;2023-05-07T13:16:18;13.45;;;8.23;;
22786;SDS011;63134;52.020;4.714;2023-05-07T13:19:06;19.17;;;10.50;;
22786;SDS011;63134;52.020;4.714;2023-05-07T13:21:57;16.33;;;10.10;;
22786;SDS011;63134;52.020;4.714;2023-05-07T13:24:43;17.00;;;9.82;;
22786;SDS011;63134;52.020;4.714;2023-05-07T13:27:28;11.57;;;8.05;;
22786;SDS011;63134;52.020;4.714;2023-05-07T13:30:15;13.60;;;9.13;;
22786;SDS011;63134;52.020;4.714;2023-05-07T13:33:00;13.95;;;8.75;;
22786;SDS011;63134;52.020;4.714;2023-05-07T13:35:46;16.75;;;9.32;;
22786;SDS011;63134;52.020;4.714;2023-05-07T13:38:32;13.85;;;9.48;;
22786;SDS011;63134;52.020;4.714;2023-05-07T13:41:17;19.15;;;10.43;;
22786;SDS011;63134;52.020;4.714;2023-05-07T13:44:05;14.20;;;9.77;;
22786;SDS011;63134;52.020;4.714;2023-05-07T13:46:51;17.48;;;11.25;;
22786;SDS011;63134;52.020;4.714;2023-05-07T13:49:36;14.70;;;9.85;;
22786;SDS011;63134;52.020;4.714;2023-05-07T13:52:22;12.43;;;8.00;;
22786;SDS011;63134;52.020;4.714;2023-05-07T13:55:07;15.98;;;10.13;;
22786;SDS011;63134;52.020;4.714;2023-05-07T13:57:54;14.95;;;9.52;;
22786;SDS011;63134;52.020;4.714;2023-05-07T14:00:41;18.45;;;13.18;;
22786;SDS011;63134;52.020;4.714;2023-05-07T14:03:30;19.23;;;12.00;;
22786;SDS011;63134;52.020;4.714;2023-05-07T14:06:17;22.77;;;13.77;;
22786;SDS011;63134;52.020;4.714;2023-05-07T14:09:03;19.73;;;13.05;;
22786;SDS011;63134;52.020;4.714;2023-05-07T14:11:49;18.63;;;13.43;;
22786;SDS011;63134;52.020;4.714;2023-05-07T14:14:36;19.95;;;14.18;;
22786;SDS011;63134;52.020;4.714;2023-05-07T14:17:22;19.15;;;14.25;;
22786;SDS011;63134;52.020;4.714;2023-05-07T14:20:11;23.13;;;15.05;;
22786;SDS011;63134;52.020;4.714;2023-05-07T14:22:58;26.88;;;15.20;;
22786;SDS011;63134;52.020;4.714;2023-05-07T14:25:46;27.33;;;16.70;;
22786;SDS011;63134;52.020;4.714;2023-05-07T14:28:32;25.63;;;16.88;;
22786;SDS011;63134;52.020;4.714;2023-05-07T14:31:18;23.58;;;15.98;;
22786;SDS011;63134;52.020;4.714;2023-05-07T14:34:04;23.23;;;17.17;;
22786;SDS011;63134;52.020;4.714;2023-05-07T14:36:49;21.80;;;15.65;;
22786;SDS011;63134;52.020;4.714;2023-05-07T14:39:35;24.13;;;15.73;;
22786;SDS011;63134;52.020;4.714;2023-05-07T14:42:20;22.35;;;15.05;;
22786;SDS011;63134;52.020;4.714;2023-05-07T14:45:06;19.60;;;13.02;;
22786;SDS011;63134;52.020;4.714;2023-05-07T14:47:51;17.15;;;11.00;;
22786;SDS011;63134;52.020;4.714;2023-05-07T14:50:37;16.90;;;12.02;;
22786;SDS011;63134;52.020;4.714;2023-05-07T14:53:25;17.65;;;10.98;;
22786;SDS011;63134;52.020;4.714;2023-05-07T14:56:11;15.18;;;9.63;;
22786;SDS011;63134;52.020;4.714;2023-05-07T14:58:57;13.70;;;9.23;;
22786;SDS011;63134;52.020;4.714;2023-05-07T15:01:42;10.75;;;6.72;;
22786;SDS011;63134;52.020;4.714;2023-05-07T15:04:30;9.10;;;6.18;;
22786;SDS011;63134;52.020;4.714;2023-05-07T15:07:16;7.18;;;4.78;;
22786;SDS011;63134;52.020;4.714;2023-05-07T15:10:02;6.85;;;5.15;;
22786;SDS011;63134;52.020;4.714;2023-05-07T15:12:48;10.57;;;6.80;;
22786;SDS011;63134;52.020;4.714;2023-05-07T15:15:35;13.18;;;7.55;;
22786;SDS011;63134;52.020;4.714;2023-05-07T15:18:21;11.82;;;7.43;;
22786;SDS011;63134;52.020;4.714;2023-05-07T15:21:07;16.73;;;10.50;;
22786;SDS011;63134;52.020;4.714;2023-05-07T15:23:53;18.23;;;11.40;;
22786;SDS011;63134;52.020;4.714;2023-05-07T15:26:39;17.60;;;11.95;;
22786;SDS011;63134;52.020;4.714;2023-05-07T15:29:24;18.05;;;13.20;;
22786;SDS011;63134;52.020;4.714;2023-05-07T15:32:18;16.08;;;12.75;;
22786;SDS011;63134;52.020;4.714;2023-05-07T15:35:04;17.85;;;12.50;;
22786;SDS011;63134;52.020;4.714;2023-05-07T15:37:50;19.33;;;12.98;;
22786;SDS011;63134;52.020;4.714;2023-05-07T15:40:36;18.52;;;13.20;;
22786;SDS011;63134;52.020;4.714;2023-05-07T15:43:26;17.60;;;13.18;;
22786;SDS011;63134;52.020;4.714;2023-05-07T15:46:12;20.65;;;14.98;;
22786;SDS011;63134;52.020;4.714;2023-05-07T15:49:05;18.08;;;13.43;;
22786;SDS011;63134;52.020;4.714;2023-05-07T15:51:54;17.70;;;14.40;;
22786;SDS011;63134;52.020;4.714;2023-05-07T15:54:40;22.25;;;13.40;;
22786;SDS011;63134;52.020;4.714;2023-05-07T15:57:28;18.45;;;12.98;;
22786;SDS011;63134;52.020;4.714;2023-05-07T16:00:14;26.00;;;14.80;;
22786;SDS011;63134;52.020;4.714;2023-05-07T16:03:01;17.00;;;14.18;;
22786;SDS011;63134;52.020;4.714;2023-05-07T16:05:46;18.17;;;13.70;;
22786;SDS011;63134;52.020;4.714;2023-05-07T16:08:32;21.33;;;15.82;;
22786;SDS011;63134;52.020;4.714;2023-05-07T16:11:18;18.48;;;13.90;;
22786;SDS011;63134;52.020;4.714;2023-05-07T16:14:03;19.50;;;13.98;;
22786;SDS011;63134;52.020;4.714;2023-05-07T16:16:49;16.30;;;12.25;;
22786;SDS011;63134;52.020;4.714;2023-05-07T16:19:36;13.70;;;11.90;;
22786;SDS011;63134;52.020;4.714;2023-05-07T16:22:22;22.77;;;13.40;;
22786;SDS011;63134;52.020;4.714;2023-05-07T16:25:09;18.42;;;12.93;;
22786;SDS011;63134;52.020;4.714;2023-05-07T16:27:59;19.00;;;12.07;;
22786;SDS011;63134;52.020;4.714;2023-05-07T16:30:44;17.98;;;11.63;;
22786;SDS011;63134;52.020;4.714;2023-05-07T16:33:30;17.17;;;11.63;;
22786;SDS011;63134;52.020;4.714;2023-05-07T16:36:18;16.80;;;11.38;;
22786;SDS011;63134;52.020;4.714;2023-05-07T16:39:05;15.90;;;11.48;;
22786;SDS011;63134;52.020;4.714;2023-05-07T16:41:52;14.60;;;11.13;;
22786;SDS011;63134;52.020;4.714;2023-05-07T16:44:37;18.67;;;11.70;;
22786;SDS011;63134;52.020;4.714;2023-05-07T16:47:23;15.82;;;10.77;;
22786;SDS011;63134;52.020;4.714;2023-05-07T16:50:09;14.05;;;11.38;;